createdAt,value
2018-10-04T00:01:16.482Z,4.75
2018-10-04T00:03:45.641Z,2.72
2018-10-04T00:06:15.005Z,4.10
2018-10-04T00:08:43.812Z,3.90
2018-10-04T00:11:13.938Z,4.37
2018-10-04T00:13:43.391Z,5.90
2018-10-04T00:16:12.188Z,2.58
2018-10-04T00:18:41.743Z,3.50
2018-10-04T00:21:10.783Z,7.28
2018-10-04T00:23:39.583Z,2.40
2018-10-04T00:26:09.320Z,3.25
2018-10-04T00:28:38.493Z,6.97
2018-10-04T00:31:08.640Z,4.17
2018-10-04T00:33:38.122Z,3.40
2018-10-04T00:36:07.546Z,3.62
2018-10-04T00:38:36.623Z,3.67
2018-10-04T00:41:05.977Z,4.80
2018-10-04T00:43:35.213Z,3.22
2018-10-04T00:46:04.257Z,4.30
2018-10-04T00:48:33.025Z,4.05
2018-10-04T00:51:01.896Z,3.27
2018-10-04T00:53:31.904Z,4.60
2018-10-04T00:56:00.993Z,4.17
2018-10-04T00:58:29.814Z,3.60
2018-10-04T01:00:59.306Z,4.55
2018-10-04T01:03:28.818Z,3.80
2018-10-04T01:07:27.349Z,3.92
2018-10-04T01:09:56.574Z,5.50
2018-10-04T01:12:25.672Z,2.87
2018-10-04T01:14:54.713Z,3.35
2018-10-04T01:17:24.429Z,4.00
2018-10-04T01:19:54.426Z,3.15
2018-10-04T01:22:23.398Z,2.77
2018-10-04T01:24:53.304Z,2.65
2018-10-04T01:27:22.104Z,4.37
2018-10-04T01:29:51.118Z,4.65
2018-10-04T01:32:20.484Z,2.72
2018-10-04T01:34:49.723Z,2.85
2018-10-04T01:37:18.737Z,2.70
2018-10-04T01:39:47.784Z,3.40
2018-10-04T01:42:16.901Z,2.40
2018-10-04T01:44:45.758Z,2.45
2018-10-04T01:47:15.031Z,5.53
2018-10-04T01:49:44.082Z,2.87
2018-10-04T01:52:13.189Z,2.90
2018-10-04T01:54:42.374Z,2.35
2018-10-04T01:57:11.541Z,2.72
2018-10-04T01:59:40.890Z,2.25
2018-10-04T02:02:10.084Z,1.75
2018-10-04T02:04:38.881Z,3.22
2018-10-04T02:07:07.801Z,1.92
2018-10-04T02:09:37.038Z,3.10
2018-10-04T02:12:06.121Z,4.95
2018-10-04T02:14:35.088Z,2.80
2018-10-04T02:17:04.211Z,1.77
2018-10-04T02:19:33.022Z,2.08
2018-10-04T02:22:01.996Z,1.82
2018-10-04T02:24:31.300Z,2.08
2018-10-04T02:27:01.365Z,1.60
2018-10-04T02:29:30.209Z,1.92
2018-10-04T02:31:58.939Z,1.40
2018-10-04T02:34:28.281Z,1.27
2018-10-04T02:36:57.045Z,1.55
2018-10-04T02:39:26.191Z,1.67
2018-10-04T02:41:55.310Z,2.25
2018-10-04T02:44:24.309Z,2.95
2018-10-04T02:46:53.591Z,3.42
2018-10-04T02:49:22.819Z,1.57
2018-10-04T02:51:51.646Z,2.72
2018-10-04T02:54:27.833Z,3.85
2018-10-04T02:57:01.207Z,1.65
2018-10-04T02:59:30.956Z,1.90
2018-10-04T03:02:00.090Z,2.85
2018-10-04T03:04:30.992Z,2.65
2018-10-04T03:07:02.690Z,2.12
2018-10-04T03:09:32.529Z,1.82
2018-10-04T03:12:05.465Z,2.45
2018-10-04T03:14:34.897Z,2.83
2018-10-04T03:17:05.285Z,3.10
2018-10-04T03:19:34.475Z,1.75
2018-10-04T03:22:03.252Z,5.20
2018-10-04T03:24:33.222Z,2.77
2018-10-04T03:27:02.654Z,1.60
2018-10-04T03:29:32.925Z,1.30
2018-10-04T03:32:01.717Z,3.42
2018-10-04T03:34:31.449Z,2.92
2018-10-04T03:37:01.011Z,3.12
2018-10-04T03:39:31.311Z,3.10
2018-10-04T03:42:00.200Z,2.90
2018-10-04T03:44:28.997Z,2.52
2018-10-04T03:46:57.780Z,3.92
2018-10-04T03:49:26.525Z,3.27
2018-10-04T03:51:56.857Z,1.27
2018-10-04T03:54:26.025Z,4.05
2018-10-04T03:56:54.775Z,2.95
2018-10-04T03:59:24.047Z,1.85
2018-10-04T04:01:53.789Z,1.22
2018-10-04T04:04:23.062Z,1.72
2018-10-04T04:06:52.039Z,2.12
2018-10-04T04:09:21.339Z,2.55
2018-10-04T04:11:50.442Z,3.47
2018-10-04T04:14:22.489Z,3.65
2018-10-04T04:16:51.403Z,1.37
2018-10-04T04:19:20.297Z,3.52
2018-10-04T04:21:49.216Z,2.80
2018-10-04T04:24:18.059Z,1.98
2018-10-04T04:26:47.147Z,1.07
2018-10-04T04:29:16.787Z,3.05
2018-10-04T04:31:45.616Z,4.25
2018-10-04T04:34:14.525Z,2.58
2018-10-04T04:36:43.260Z,0.90
2018-10-04T04:39:12.039Z,4.17
2018-10-04T04:41:40.770Z,0.65
2018-10-04T04:44:09.543Z,2.15
2018-10-04T04:46:38.437Z,1.25
2018-10-04T04:49:07.147Z,4.47
2018-10-04T04:51:35.856Z,0.70
2018-10-04T04:54:04.803Z,1.27
2018-10-04T04:56:33.599Z,1.80
2018-10-04T04:59:02.544Z,1.62
2018-10-04T05:01:31.298Z,5.33
2018-10-04T05:04:00.082Z,2.10
2018-10-04T05:06:28.881Z,2.02
2018-10-04T05:08:57.610Z,1.67
2018-10-04T05:11:26.341Z,1.05
2018-10-04T05:13:55.149Z,3.47
2018-10-04T05:16:23.905Z,2.02
2018-10-04T05:18:53.711Z,4.55
2018-10-04T05:21:22.487Z,4.58
2018-10-04T05:23:51.240Z,2.22
2018-10-04T05:26:20.023Z,2.58
2018-10-04T05:28:48.781Z,3.05
2018-10-04T05:31:17.546Z,2.12
2018-10-04T05:33:46.302Z,2.35
2018-10-04T05:36:15.078Z,3.67
2018-10-04T05:38:43.833Z,3.80
2018-10-04T05:41:12.678Z,2.67
2018-10-04T05:43:41.469Z,11.78
2018-10-04T05:46:10.238Z,2.40
2018-10-04T05:48:39.024Z,8.75
2018-10-04T05:51:07.876Z,7.45
2018-10-04T05:53:36.605Z,5.85
2018-10-04T05:56:05.726Z,4.83
2018-10-04T05:58:34.488Z,3.55
2018-10-04T06:01:03.235Z,7.10
2018-10-04T06:03:32.025Z,22.55
2018-10-04T06:06:01.046Z,8.85
2018-10-04T06:08:29.819Z,13.53
2018-10-04T06:10:58.617Z,10.68
2018-10-04T06:13:27.389Z,8.38
2018-10-04T06:15:57.050Z,6.72
2018-10-04T06:18:25.827Z,5.78
2018-10-04T06:20:54.596Z,11.33
2018-10-04T06:23:23.421Z,13.08
2018-10-04T06:25:52.160Z,5.47
2018-10-04T06:28:20.924Z,6.87
2018-10-04T06:30:49.825Z,6.87
2018-10-04T06:33:18.611Z,10.43
2018-10-04T06:35:47.408Z,9.55
2018-10-04T06:38:16.242Z,5.72
2018-10-04T06:40:45.014Z,5.28
2018-10-04T06:43:13.898Z,7.78
2018-10-04T06:45:42.639Z,7.62
2018-10-04T06:48:11.412Z,5.00
2018-10-04T06:50:40.198Z,2.80
2018-10-04T06:53:08.986Z,4.08
2018-10-04T06:55:37.792Z,3.60
2018-10-04T06:58:06.606Z,4.85
2018-10-04T07:00:35.347Z,5.25
2018-10-04T07:03:04.115Z,4.05
2018-10-04T07:05:32.870Z,2.90
2018-10-04T07:08:01.699Z,5.47
2018-10-04T07:10:30.434Z,5.08
2018-10-04T07:12:59.239Z,3.08
2018-10-04T07:15:27.993Z,3.25
2018-10-04T07:17:56.774Z,3.08
2018-10-04T07:20:25.664Z,1.37
2018-10-04T07:22:54.457Z,1.37
2018-10-04T07:25:23.378Z,4.62
2018-10-04T07:27:52.133Z,1.50
2018-10-04T07:30:20.910Z,2.40
2018-10-04T07:32:49.695Z,1.37
2018-10-04T07:35:18.477Z,2.05
2018-10-04T07:37:47.337Z,1.77
2018-10-04T07:40:16.076Z,2.77
2018-10-04T07:42:44.963Z,2.90
2018-10-04T07:45:13.680Z,3.05
2018-10-04T07:47:42.450Z,1.12
2018-10-04T07:50:11.320Z,2.67
2018-10-04T07:52:40.035Z,2.90
2018-10-04T07:55:08.809Z,1.17
2018-10-04T07:57:37.737Z,2.45
2018-10-04T08:00:06.697Z,2.10
2018-10-04T08:02:35.483Z,2.00
2018-10-04T08:05:04.698Z,2.40
2018-10-04T08:07:33.448Z,3.45
2018-10-04T08:10:02.211Z,2.45
2018-10-04T08:12:30.974Z,3.05
2018-10-04T08:14:59.787Z,1.47
2018-10-04T08:17:28.583Z,2.25
2018-10-04T08:19:57.338Z,1.50
2018-10-04T08:22:26.115Z,2.77
2018-10-04T08:24:54.890Z,2.80
2018-10-04T08:27:23.738Z,3.80
2018-10-04T08:29:52.489Z,2.37
2018-10-04T08:32:21.235Z,2.62
2018-10-04T08:34:50.028Z,2.77
2018-10-04T08:37:18.787Z,1.98
2018-10-04T08:39:47.531Z,3.05
2018-10-04T08:42:16.248Z,1.40
2018-10-04T08:44:45.030Z,2.05
2018-10-04T08:47:13.758Z,2.00
2018-10-04T08:49:42.554Z,1.92
2018-10-04T08:52:16.457Z,1.20
2018-10-04T08:54:45.199Z,2.25
2018-10-04T08:57:13.987Z,1.40
2018-10-04T08:59:42.767Z,0.98
2018-10-04T09:02:11.597Z,1.45
2018-10-04T09:04:40.420Z,1.55
2018-10-04T09:07:09.164Z,0.72
2018-10-04T09:09:38.003Z,1.62
2018-10-04T09:12:07.004Z,1.57
2018-10-04T09:14:35.710Z,0.80
2018-10-04T09:17:05.087Z,1.25
2018-10-04T09:19:33.903Z,3.30
2018-10-04T09:22:02.676Z,1.90
2018-10-04T09:24:31.479Z,1.95
2018-10-04T09:27:00.247Z,0.60
2018-10-04T09:29:28.986Z,1.12
2018-10-04T09:31:57.812Z,0.90
2018-10-04T09:34:26.616Z,1.67
2018-10-04T09:36:55.345Z,1.02
2018-10-04T09:39:24.087Z,1.10
2018-10-04T09:41:52.982Z,2.62
2018-10-04T09:44:21.732Z,1.57
2018-10-04T09:46:50.503Z,1.65
2018-10-04T09:49:19.320Z,0.75
2018-10-04T09:51:53.422Z,0.98
2018-10-04T09:54:27.486Z,1.35
2018-10-04T09:56:56.358Z,1.30
2018-10-04T09:59:25.111Z,0.72
2018-10-04T10:01:59.111Z,1.25
2018-10-04T10:04:28.001Z,0.80
2018-10-04T10:06:56.823Z,0.42
2018-10-04T10:09:26.486Z,1.10
2018-10-04T10:11:55.404Z,1.65
2018-10-04T10:14:24.182Z,1.02
2018-10-04T10:16:52.988Z,0.72
2018-10-04T10:19:21.952Z,0.90
2018-10-04T10:21:50.762Z,1.47
2018-10-04T10:24:19.581Z,1.15
2018-10-04T10:26:48.981Z,0.40
2018-10-04T10:29:17.714Z,0.90
2018-10-04T10:31:46.485Z,0.80
2018-10-04T10:34:15.327Z,0.45
2018-10-04T10:36:44.143Z,2.00
2018-10-04T10:39:12.918Z,0.57
2018-10-04T10:41:41.718Z,1.07
2018-10-04T10:44:10.853Z,0.68
2018-10-04T10:46:39.710Z,0.50
2018-10-04T10:49:08.563Z,0.42
2018-10-04T10:51:38.106Z,0.70
2018-10-04T10:54:06.943Z,1.20
2018-10-04T10:58:04.802Z,1.95
2018-10-04T11:00:33.630Z,0.53
2018-10-04T11:03:02.553Z,0.62
2018-10-04T11:05:31.360Z,0.78
2018-10-04T11:08:00.158Z,0.55
2018-10-04T11:10:29.189Z,0.65
2018-10-04T11:12:57.966Z,0.42
2018-10-04T11:15:26.747Z,0.85
2018-10-04T11:17:55.810Z,0.70
2018-10-04T11:20:24.704Z,1.15
2018-10-04T11:22:53.832Z,0.45
2018-10-04T11:25:22.695Z,0.72
2018-10-04T11:27:51.700Z,0.60
2018-10-04T11:30:20.564Z,0.82
2018-10-04T11:32:49.981Z,1.27
2018-10-04T11:35:18.998Z,1.17
2018-10-04T11:37:47.828Z,0.85
2018-10-04T11:40:17.387Z,0.40
2018-10-04T11:42:48.507Z,0.40
2018-10-04T11:45:21.064Z,0.60
2018-10-04T11:47:50.176Z,0.70
2018-10-04T11:50:22.253Z,0.45
2018-10-04T11:52:51.222Z,0.82
2018-10-04T11:55:20.130Z,1.15
2018-10-04T11:57:49.019Z,1.35
2018-10-04T12:00:19.135Z,0.75
2018-10-04T12:02:51.115Z,1.17
2018-10-04T12:05:20.231Z,0.53
2018-10-04T12:07:49.074Z,1.27
2018-10-04T12:10:17.897Z,0.50
2018-10-04T12:12:46.900Z,0.45
2018-10-04T12:15:15.757Z,0.20
2018-10-04T12:17:44.596Z,0.60
2018-10-04T12:20:13.344Z,0.98
2018-10-04T12:22:42.083Z,0.50
2018-10-04T12:25:10.879Z,0.60
2018-10-04T12:27:39.692Z,0.65
2018-10-04T12:30:08.587Z,0.45
2018-10-04T12:32:37.313Z,1.10
2018-10-04T12:35:06.180Z,0.50
2018-10-04T12:37:34.984Z,0.62
2018-10-04T12:40:04.017Z,1.02
2018-10-04T12:42:32.779Z,1.20
2018-10-04T12:45:01.518Z,1.32
2018-10-04T12:47:30.363Z,1.82
2018-10-04T12:49:59.257Z,1.92
2018-10-04T12:52:28.039Z,1.20
2018-10-04T12:54:56.851Z,1.55
2018-10-04T12:57:25.583Z,2.35
2018-10-04T12:59:54.817Z,0.80
2018-10-04T13:02:23.943Z,1.05
2018-10-04T13:04:52.747Z,1.32
2018-10-04T13:07:21.478Z,1.75
2018-10-04T13:09:50.316Z,1.10
2018-10-04T13:12:19.111Z,1.07
2018-10-04T13:14:47.928Z,1.20
2018-10-04T13:17:16.759Z,1.90
2018-10-04T13:19:45.504Z,1.00
2018-10-04T13:22:14.311Z,1.05
2018-10-04T13:24:43.109Z,1.00
2018-10-04T13:27:11.869Z,1.35
2018-10-04T13:29:40.678Z,1.72
2018-10-04T13:32:09.500Z,1.02
2018-10-04T13:34:38.250Z,2.20
2018-10-04T13:37:07.082Z,2.20
2018-10-04T13:39:35.901Z,0.98
2018-10-04T13:42:04.873Z,1.00
2018-10-04T13:44:33.648Z,3.50
2018-10-04T13:47:03.525Z,2.10
2018-10-04T13:49:32.321Z,1.00
2018-10-04T13:52:01.158Z,0.65
2018-10-04T13:54:29.888Z,1.40
2018-10-04T13:56:58.678Z,1.42
2018-10-04T13:59:27.589Z,1.02
2018-10-04T14:01:56.296Z,0.90
2018-10-04T14:04:25.112Z,0.60
2018-10-04T14:06:53.987Z,1.50
2018-10-04T14:09:22.847Z,1.20
2018-10-04T14:11:51.677Z,1.25
2018-10-04T14:14:20.448Z,1.40
2018-10-04T14:16:49.329Z,1.27
2018-10-04T14:19:18.113Z,0.42
2018-10-04T14:21:46.927Z,1.22
2018-10-04T14:24:15.688Z,1.85
2018-10-04T14:26:45.018Z,1.07
2018-10-04T14:29:13.805Z,0.70
2018-10-04T14:31:42.601Z,1.45
2018-10-04T14:34:11.436Z,0.93
2018-10-04T14:36:40.224Z,0.85
2018-10-04T14:39:09.084Z,0.72
2018-10-04T14:41:37.952Z,1.15
2018-10-04T14:44:06.774Z,0.60
2018-10-04T14:46:35.536Z,1.15
2018-10-04T14:49:05.115Z,0.88
2018-10-04T14:51:34.025Z,2.87
2018-10-04T14:54:03.597Z,0.82
2018-10-04T14:56:32.381Z,1.45
2018-10-04T14:59:01.221Z,0.50
2018-10-04T15:01:30.033Z,0.47
2018-10-04T15:03:58.844Z,0.70
2018-10-04T15:06:27.710Z,0.40
2018-10-04T15:08:56.546Z,0.93
2018-10-04T15:11:25.313Z,0.60
2018-10-04T15:13:55.560Z,0.93
2018-10-04T15:16:24.344Z,0.80
2018-10-04T15:18:53.165Z,0.55
2018-10-04T15:21:22.196Z,0.68
2018-10-04T15:23:50.982Z,0.88
2018-10-04T15:26:19.788Z,0.62
2018-10-04T15:28:48.604Z,0.57
2018-10-04T15:31:17.665Z,0.50
2018-10-04T15:33:46.450Z,0.60
2018-10-04T15:36:15.224Z,0.98
2018-10-04T15:38:44.095Z,0.57
2018-10-04T15:41:12.903Z,1.15
2018-10-04T15:43:41.787Z,1.25
2018-10-04T15:46:10.659Z,1.07
2018-10-04T15:48:39.442Z,0.78
2018-10-04T15:51:08.302Z,1.35
2018-10-04T15:53:37.781Z,2.15
2018-10-04T15:56:06.670Z,1.10
2018-10-04T15:58:35.447Z,0.88
2018-10-04T16:01:05.534Z,1.00
2018-10-04T16:03:34.387Z,1.30
2018-10-04T16:06:04.149Z,2.35
2018-10-04T16:08:32.886Z,1.52
2018-10-04T16:11:01.731Z,0.95
2018-10-04T16:13:30.505Z,0.95
2018-10-04T16:15:59.385Z,0.75
2018-10-04T16:18:28.189Z,0.90
2018-10-04T16:20:56.988Z,0.93
2018-10-04T16:23:25.820Z,1.22
2018-10-04T16:25:54.689Z,1.82
2018-10-04T16:28:23.482Z,1.07
2018-10-04T16:30:52.308Z,0.42
2018-10-04T16:33:21.068Z,0.93
2018-10-04T16:35:49.845Z,1.00
2018-10-04T16:38:18.691Z,2.02
2018-10-04T16:40:47.503Z,0.80
2018-10-04T16:43:16.309Z,1.52
2018-10-04T16:45:45.199Z,0.50
2018-10-04T16:48:14.040Z,0.65
2018-10-04T16:50:42.865Z,0.90
2018-10-04T16:53:11.656Z,0.68
2018-10-04T16:55:40.499Z,1.10
2018-10-04T16:58:09.374Z,0.57
2018-10-04T17:00:38.331Z,0.53
2018-10-04T17:03:07.329Z,1.07
2018-10-04T17:05:36.257Z,1.05
2018-10-04T17:08:05.274Z,1.15
2018-10-04T17:10:35.078Z,0.72
2018-10-04T17:13:04.197Z,0.72
2018-10-04T17:15:32.991Z,0.50
2018-10-04T17:18:01.798Z,0.50
2018-10-04T17:20:30.744Z,0.82
2018-10-04T17:22:59.659Z,0.95
2018-10-04T17:25:28.485Z,0.90
2018-10-04T17:27:57.298Z,0.78
2018-10-04T17:30:29.007Z,0.85
2018-10-04T17:32:58.297Z,0.78
2018-10-04T17:35:27.477Z,1.65
2018-10-04T17:37:56.320Z,1.10
2018-10-04T17:40:25.125Z,0.85
2018-10-04T17:42:54.089Z,0.72
2018-10-04T17:45:23.365Z,0.68
2018-10-04T17:47:52.450Z,0.90
2018-10-04T17:50:21.091Z,1.70
2018-10-04T17:52:49.950Z,0.72
2018-10-04T17:55:18.890Z,0.98
2018-10-04T17:57:47.836Z,0.68
2018-10-04T18:00:16.643Z,0.88
2018-10-04T18:02:45.602Z,0.50
2018-10-04T18:05:14.457Z,2.20
2018-10-04T18:07:43.398Z,0.93
2018-10-04T18:10:12.292Z,0.62
2018-10-04T18:12:41.166Z,0.95
2018-10-04T18:15:10.024Z,1.05
2018-10-04T18:17:38.921Z,1.15
2018-10-04T18:20:07.797Z,1.00
2018-10-04T18:22:36.700Z,1.17
2018-10-04T18:25:06.145Z,1.22
2018-10-04T18:27:35.014Z,3.37
2018-10-04T18:30:04.293Z,0.50
2018-10-04T18:32:33.260Z,1.15
2018-10-04T18:35:02.139Z,1.25
2018-10-04T18:37:31.413Z,0.80
2018-10-04T18:40:00.235Z,1.45
2018-10-04T18:42:29.187Z,1.52
2018-10-04T18:44:58.063Z,1.82
2018-10-04T18:47:26.996Z,1.07
2018-10-04T18:49:55.847Z,1.07
2018-10-04T18:52:24.752Z,1.00
2018-10-04T18:54:53.648Z,1.05
2018-10-04T18:57:22.490Z,0.98
2018-10-04T18:59:51.424Z,0.98
2018-10-04T19:02:20.364Z,0.55
2018-10-04T19:04:49.245Z,1.25
2018-10-04T19:07:18.098Z,0.80
2018-10-04T19:09:46.899Z,0.80
2018-10-04T19:12:15.736Z,1.27
2018-10-04T19:14:44.641Z,1.02
2018-10-04T19:17:13.605Z,1.10
2018-10-04T19:19:42.385Z,1.80
2018-10-04T19:22:11.236Z,2.45
2018-10-04T19:24:40.059Z,3.45
2018-10-04T19:27:17.672Z,3.70
2018-10-04T19:29:46.704Z,1.90
2018-10-04T19:32:15.494Z,0.80
2018-10-04T19:34:44.310Z,1.37
2018-10-04T19:37:13.244Z,1.62
2018-10-04T19:39:42.063Z,3.47
2018-10-04T19:42:10.968Z,1.55
2018-10-04T19:44:39.804Z,2.27
2018-10-04T19:47:08.793Z,1.65
2018-10-04T19:49:38.423Z,1.27
2018-10-04T19:52:07.340Z,1.22
2018-10-04T19:54:36.138Z,0.82
2018-10-04T19:57:04.950Z,1.52
2018-10-04T19:59:33.803Z,2.47
2018-10-04T20:02:02.813Z,0.90
2018-10-04T20:04:31.815Z,1.42
2018-10-04T20:07:00.620Z,0.90
2018-10-04T20:09:29.519Z,1.00
2018-10-04T20:11:58.299Z,1.12
2018-10-04T20:14:27.111Z,2.42
2018-10-04T20:16:55.879Z,0.95
2018-10-04T20:19:24.898Z,1.05
2018-10-04T20:21:53.701Z,0.93
2018-10-04T20:24:22.550Z,2.30
2018-10-04T20:26:51.343Z,1.27
2018-10-04T20:29:20.185Z,1.80
2018-10-04T20:31:49.050Z,1.27
2018-10-04T20:34:18.922Z,0.80
2018-10-04T20:36:48.352Z,0.60
2018-10-04T20:39:17.181Z,0.72
2018-10-04T20:41:46.053Z,0.60
2018-10-04T20:44:14.955Z,0.60
2018-10-04T20:46:43.754Z,0.93
2018-10-04T20:49:12.693Z,1.10
2018-10-04T20:51:41.585Z,0.70
2018-10-04T20:54:10.414Z,1.10
2018-10-04T20:56:39.431Z,0.80
2018-10-04T20:59:08.402Z,0.93
2018-10-04T21:01:37.263Z,0.62
2018-10-04T21:04:06.118Z,0.82
2018-10-04T21:06:34.962Z,1.25
2018-10-04T21:09:04.207Z,1.15
2018-10-04T21:11:33.073Z,1.02
2018-10-04T21:14:01.849Z,6.45
2018-10-04T21:16:30.832Z,1.77
2018-10-04T21:18:59.647Z,2.77
2018-10-04T21:21:28.749Z,3.10
2018-10-04T21:23:57.602Z,5.35
2018-10-04T21:26:26.480Z,2.25
2018-10-04T21:28:55.575Z,9.25
2018-10-04T21:31:24.710Z,2.60
2018-10-04T21:33:53.530Z,1.60
2018-10-04T21:36:22.491Z,7.37
2018-10-04T21:38:51.394Z,1.57
2018-10-04T21:41:20.261Z,7.83
2018-10-04T21:43:49.476Z,4.25
2018-10-04T21:46:19.033Z,2.47
2018-10-04T21:48:47.918Z,6.08
2018-10-04T21:51:16.755Z,4.60
2018-10-04T21:53:45.959Z,8.33
2018-10-04T21:56:14.795Z,5.87
2018-10-04T21:58:43.596Z,3.98
2018-10-04T22:03:47.442Z,4.58
2018-10-04T22:06:16.296Z,3.55
2018-10-04T22:08:45.106Z,3.02
2018-10-04T22:11:13.883Z,1.15
2018-10-04T22:13:42.780Z,3.27
2018-10-04T22:16:11.582Z,4.00
2018-10-04T22:18:40.398Z,2.25
2018-10-04T22:21:09.243Z,2.70
2018-10-04T22:23:38.014Z,1.52
2018-10-04T22:26:06.976Z,3.40
2018-10-04T22:28:35.982Z,2.70
2018-10-04T22:31:05.772Z,1.02
2018-10-04T22:33:34.566Z,1.32
2018-10-04T22:36:03.314Z,1.70
2018-10-04T22:38:32.082Z,3.40
2018-10-04T22:41:00.862Z,2.80
2018-10-04T22:43:29.678Z,2.47
2018-10-04T22:45:58.545Z,3.55
2018-10-04T22:48:27.824Z,1.80
2018-10-04T22:50:57.219Z,3.80
2018-10-04T22:53:27.547Z,1.45
2018-10-04T22:55:58.175Z,1.12
2018-10-04T22:58:28.609Z,3.77
2018-10-04T23:00:59.141Z,1.20
2018-10-04T23:03:29.978Z,3.87
2018-10-04T23:06:00.605Z,3.77
2018-10-04T23:08:30.943Z,3.72
2018-10-04T23:11:01.047Z,1.98
2018-10-04T23:13:32.090Z,2.08
2018-10-04T23:16:02.927Z,0.72
2018-10-04T23:18:33.571Z,1.35
2018-10-04T23:21:03.595Z,1.67
2018-10-04T23:23:33.909Z,1.87
2018-10-04T23:26:04.847Z,0.80
2018-10-04T23:28:35.175Z,1.05
2018-10-04T23:31:05.604Z,2.60
2018-10-04T23:33:35.821Z,1.55
2018-10-04T23:36:06.659Z,1.57
2018-10-04T23:38:37.903Z,2.27
2018-10-04T23:41:08.235Z,1.17
2018-10-04T23:43:38.561Z,1.82
2018-10-04T23:46:09.186Z,1.67
2018-10-04T23:48:40.031Z,1.47
2018-10-04T23:51:10.764Z,2.02
2018-10-04T23:53:41.227Z,1.92
2018-10-04T23:56:11.716Z,1.98
2018-10-04T23:58:41.839Z,1.25
